sensor_id;sensor_type;location;lat;lon;timestamp;temperature;humidity
22765;DHT22;11549;50.852;3.816;2023-04-24T00:00:00;10.40;99.90
22765;DHT22;11549;50.852;3.816;2023-04-24T00:02:28;10.40;99.90
22765;DHT22;11549;50.852;3.816;2023-04-24T00:04:57;10.50;99.90
22765;DHT22;11549;50.852;3.816;2023-04-24T00:07:30;10.50;99.90
22765;DHT22;11549;50.852;3.816;2023-04-24T00:09:58;10.40;99.90
22765;DHT22;11549;50.852;3.816;2023-04-24T00:12:27;10.40;99.90
22765;DHT22;11549;50.852;3.816;2023-04-24T00:14:56;10.40;99.90
22765;DHT22;11549;50.852;3.816;2023-04-24T00:17:25;10.50;99.90
22765;DHT22;11549;50.852;3.816;2023-04-24T00:19:53;10.50;99.90
22765;DHT22;11549;50.852;3.816;2023-04-24T00:22:25;10.50;99.90
22765;DHT22;11549;50.852;3.816;2023-04-24T00:24:55;10.50;99.90
22765;DHT22;11549;50.852;3.816;2023-04-24T00:27:24;10.50;99.90
22765;DHT22;11549;50.852;3.816;2023-04-24T00:29:52;10.50;99.90
22765;DHT22;11549;50.852;3.816;2023-04-24T00:32:21;10.50;99.90
22765;DHT22;11549;50.852;3.816;2023-04-24T00:34:50;10.30;99.90
22765;DHT22;11549;50.852;3.816;2023-04-24T00:37:18;10.30;99.90
22765;DHT22;11549;50.852;3.816;2023-04-24T00:39:47;10.30;99.90
22765;DHT22;11549;50.852;3.816;2023-04-24T00:42:15;10.30;99.90
22765;DHT22;11549;50.852;3.816;2023-04-24T00:44:44;10.30;99.90
22765;DHT22;11549;50.852;3.816;2023-04-24T00:47:13;10.30;99.90
22765;DHT22;11549;50.852;3.816;2023-04-24T00:49:43;10.30;99.90
22765;DHT22;11549;50.852;3.816;2023-04-24T00:52:12;10.20;99.90
22765;DHT22;11549;50.852;3.816;2023-04-24T00:54:45;10.20;99.90
22765;DHT22;11549;50.852;3.816;2023-04-24T00:57:14;10.10;99.90
22765;DHT22;11549;50.852;3.816;2023-04-24T00:59:43;10.10;99.90
22765;DHT22;11549;50.852;3.816;2023-04-24T01:02:13;10.10;99.90
22765;DHT22;11549;50.852;3.816;2023-04-24T01:04:44;10.10;99.90
22765;DHT22;11549;50.852;3.816;2023-04-24T01:07:12;10.10;99.90
22765;DHT22;11549;50.852;3.816;2023-04-24T01:09:41;10.00;99.90
22765;DHT22;11549;50.852;3.816;2023-04-24T01:12:10;9.90;99.90
22765;DHT22;11549;50.852;3.816;2023-04-24T01:14:38;9.80;99.90
22765;DHT22;11549;50.852;3.816;2023-04-24T01:17:07;9.80;99.90
22765;DHT22;11549;50.852;3.816;2023-04-24T01:19:36;9.80;99.90
22765;DHT22;11549;50.852;3.816;2023-04-24T01:22:10;9.90;99.90
22765;DHT22;11549;50.852;3.816;2023-04-24T01:24:39;9.90;99.90
22765;DHT22;11549;50.852;3.816;2023-04-24T01:27:08;9.90;99.90
22765;DHT22;11549;50.852;3.816;2023-04-24T01:29:37;9.90;99.90
22765;DHT22;11549;50.852;3.816;2023-04-24T01:32:06;9.90;99.90
22765;DHT22;11549;50.852;3.816;2023-04-24T01:34:35;9.90;99.90
22765;DHT22;11549;50.852;3.816;2023-04-24T01:37:03;9.90;99.90
22765;DHT22;11549;50.852;3.816;2023-04-24T01:39:33;9.90;99.90
22765;DHT22;11549;50.852;3.816;2023-04-24T01:42:02;9.90;99.90
22765;DHT22;11549;50.852;3.816;2023-04-24T01:44:30;9.90;99.90
22765;DHT22;11549;50.852;3.816;2023-04-24T01:47:00;10.00;99.90
22765;DHT22;11549;50.852;3.816;2023-04-24T01:49:29;10.00;99.90
22765;DHT22;11549;50.852;3.816;2023-04-24T01:51:57;9.90;99.90
22765;DHT22;11549;50.852;3.816;2023-04-24T01:54:26;9.90;99.90
22765;DHT22;11549;50.852;3.816;2023-04-24T01:56:56;9.90;99.90
22765;DHT22;11549;50.852;3.816;2023-04-24T01:59:25;9.90;99.90
22765;DHT22;11549;50.852;3.816;2023-04-24T02:01:55;9.90;99.90
22765;DHT22;11549;50.852;3.816;2023-04-24T02:04:23;9.90;99.90
22765;DHT22;11549;50.852;3.816;2023-04-24T02:06:52;9.90;99.90
22765;DHT22;11549;50.852;3.816;2023-04-24T02:09:20;9.90;99.90
22765;DHT22;11549;50.852;3.816;2023-04-24T02:11:48;9.80;99.90
22765;DHT22;11549;50.852;3.816;2023-04-24T02:14:18;9.80;99.90
22765;DHT22;11549;50.852;3.816;2023-04-24T02:16:46;9.80;99.90
22765;DHT22;11549;50.852;3.816;2023-04-24T02:19:15;9.70;99.90
22765;DHT22;11549;50.852;3.816;2023-04-24T02:21:43;9.70;99.90
22765;DHT22;11549;50.852;3.816;2023-04-24T02:24:11;9.80;99.90
22765;DHT22;11549;50.852;3.816;2023-04-24T02:26:40;9.70;99.90
22765;DHT22;11549;50.852;3.816;2023-04-24T02:29:08;9.60;99.90
22765;DHT22;11549;50.852;3.816;2023-04-24T02:31:38;9.70;99.90
22765;DHT22;11549;50.852;3.816;2023-04-24T02:34:07;9.80;99.90
22765;DHT22;11549;50.852;3.816;2023-04-24T02:36:36;9.70;99.90
22765;DHT22;11549;50.852;3.816;2023-04-24T02:39:04;9.70;99.90
22765;DHT22;11549;50.852;3.816;2023-04-24T02:41:33;9.70;99.90
22765;DHT22;11549;50.852;3.816;2023-04-24T02:44:01;9.60;99.90
22765;DHT22;11549;50.852;3.816;2023-04-24T02:46:30;9.60;99.90
22765;DHT22;11549;50.852;3.816;2023-04-24T02:48:59;9.60;99.90
22765;DHT22;11549;50.852;3.816;2023-04-24T02:51:28;9.60;99.90
22765;DHT22;11549;50.852;3.816;2023-04-24T02:53:56;9.60;99.90
22765;DHT22;11549;50.852;3.816;2023-04-24T02:56:25;9.50;99.90
22765;DHT22;11549;50.852;3.816;2023-04-24T02:58:53;9.50;99.90
22765;DHT22;11549;50.852;3.816;2023-04-24T03:01:22;9.50;99.90
22765;DHT22;11549;50.852;3.816;2023-04-24T03:03:50;9.60;99.90
22765;DHT22;11549;50.852;3.816;2023-04-24T03:06:20;9.60;99.90
22765;DHT22;11549;50.852;3.816;2023-04-24T03:08:49;9.60;99.90
22765;DHT22;11549;50.852;3.816;2023-04-24T03:11:17;9.70;99.90
22765;DHT22;11549;50.852;3.816;2023-04-24T03:13:45;9.70;99.90
22765;DHT22;11549;50.852;3.816;2023-04-24T03:16:14;9.80;99.90
22765;DHT22;11549;50.852;3.816;2023-04-24T03:18:42;9.70;99.90
22765;DHT22;11549;50.852;3.816;2023-04-24T03:21:11;9.60;99.90
22765;DHT22;11549;50.852;3.816;2023-04-24T03:23:41;9.60;99.90
22765;DHT22;11549;50.852;3.816;2023-04-24T03:26:09;9.60;99.90
22765;DHT22;11549;50.852;3.816;2023-04-24T03:28:37;9.60;99.90
22765;DHT22;11549;50.852;3.816;2023-04-24T03:31:06;9.60;99.90
22765;DHT22;11549;50.852;3.816;2023-04-24T03:33:34;9.60;99.90
22765;DHT22;11549;50.852;3.816;2023-04-24T03:36:03;9.70;99.90
22765;DHT22;11549;50.852;3.816;2023-04-24T03:38:32;9.70;99.90
22765;DHT22;11549;50.852;3.816;2023-04-24T03:41:02;9.90;99.90
22765;DHT22;11549;50.852;3.816;2023-04-24T03:43:30;9.90;99.90
22765;DHT22;11549;50.852;3.816;2023-04-24T03:46:00;10.00;99.90
22765;DHT22;11549;50.852;3.816;2023-04-24T03:48:28;9.80;99.90
22765;DHT22;11549;50.852;3.816;2023-04-24T03:50:57;9.80;99.90
22765;DHT22;11549;50.852;3.816;2023-04-24T03:53:25;9.80;99.90
22765;DHT22;11549;50.852;3.816;2023-04-24T03:55:54;9.80;99.90
22765;DHT22;11549;50.852;3.816;2023-04-24T03:58:23;9.70;99.90
22765;DHT22;11549;50.852;3.816;2023-04-24T04:00:52;9.60;99.90
22765;DHT22;11549;50.852;3.816;2023-04-24T04:03:20;9.60;99.90
22765;DHT22;11549;50.852;3.816;2023-04-24T04:05:49;9.60;99.90
22765;DHT22;11549;50.852;3.816;2023-04-24T04:08:18;9.60;99.90
22765;DHT22;11549;50.852;3.816;2023-04-24T04:10:46;9.60;99.90
22765;DHT22;11549;50.852;3.816;2023-04-24T04:13:15;9.60;99.90
22765;DHT22;11549;50.852;3.816;2023-04-24T04:15:44;9.50;99.90
22765;DHT22;11549;50.852;3.816;2023-04-24T04:18:13;9.40;99.90
22765;DHT22;11549;50.852;3.816;2023-04-24T04:20:42;9.50;99.90
22765;DHT22;11549;50.852;3.816;2023-04-24T04:23:10;9.50;99.90
22765;DHT22;11549;50.852;3.816;2023-04-24T04:25:39;9.60;99.90
22765;DHT22;11549;50.852;3.816;2023-04-24T04:28:07;9.70;99.90
22765;DHT22;11549;50.852;3.816;2023-04-24T04:30:35;9.60;99.90
22765;DHT22;11549;50.852;3.816;2023-04-24T04:33:06;9.60;99.90
22765;DHT22;11549;50.852;3.816;2023-04-24T04:35:35;9.60;99.90
22765;DHT22;11549;50.852;3.816;2023-04-24T04:38:04;9.50;99.90
22765;DHT22;11549;50.852;3.816;2023-04-24T04:40:35;9.50;99.90
22765;DHT22;11549;50.852;3.816;2023-04-24T04:43:03;9.50;99.90
22765;DHT22;11549;50.852;3.816;2023-04-24T04:45:32;9.50;99.90
22765;DHT22;11549;50.852;3.816;2023-04-24T04:48:01;9.50;99.90
22765;DHT22;11549;50.852;3.816;2023-04-24T04:50:31;9.50;99.90
22765;DHT22;11549;50.852;3.816;2023-04-24T04:53:00;9.50;99.90
22765;DHT22;11549;50.852;3.816;2023-04-24T04:55:28;9.50;99.90
22765;DHT22;11549;50.852;3.816;2023-04-24T04:57:56;9.50;99.90
22765;DHT22;11549;50.852;3.816;2023-04-24T05:00:25;9.50;99.90
22765;DHT22;11549;50.852;3.816;2023-04-24T05:02:55;9.30;99.90
22765;DHT22;11549;50.852;3.816;2023-04-24T05:05:45;9.30;99.90
22765;DHT22;11549;50.852;3.816;2023-04-24T05:08:14;9.40;99.90
22765;DHT22;11549;50.852;3.816;2023-04-24T05:10:52;9.30;99.90
22765;DHT22;11549;50.852;3.816;2023-04-24T05:13:21;9.40;99.90
22765;DHT22;11549;50.852;3.816;2023-04-24T05:16:05;9.50;99.90
22765;DHT22;11549;50.852;3.816;2023-04-24T05:18:33;9.50;99.90
22765;DHT22;11549;50.852;3.816;2023-04-24T05:21:03;9.50;99.90
22765;DHT22;11549;50.852;3.816;2023-04-24T05:23:32;9.50;99.90
22765;DHT22;11549;50.852;3.816;2023-04-24T05:26:00;9.30;99.90
22765;DHT22;11549;50.852;3.816;2023-04-24T05:28:28;9.30;99.90
22765;DHT22;11549;50.852;3.816;2023-04-24T05:30:57;9.30;99.90
22765;DHT22;11549;50.852;3.816;2023-04-24T05:33:26;9.30;99.90
22765;DHT22;11549;50.852;3.816;2023-04-24T05:35:54;9.40;99.90
22765;DHT22;11549;50.852;3.816;2023-04-24T05:38:24;9.30;99.90
22765;DHT22;11549;50.852;3.816;2023-04-24T05:40:52;9.30;99.90
22765;DHT22;11549;50.852;3.816;2023-04-24T05:43:20;9.20;99.90
22765;DHT22;11549;50.852;3.816;2023-04-24T05:45:49;9.20;99.90
22765;DHT22;11549;50.852;3.816;2023-04-24T05:48:17;9.30;99.90
22765;DHT22;11549;50.852;3.816;2023-04-24T05:50:45;9.30;99.90
22765;DHT22;11549;50.852;3.816;2023-04-24T05:53:15;9.40;99.90
22765;DHT22;11549;50.852;3.816;2023-04-24T05:55:44;9.40;99.90
22765;DHT22;11549;50.852;3.816;2023-04-24T05:58:13;9.40;99.90
22765;DHT22;11549;50.852;3.816;2023-04-24T06:00:42;9.50;99.90
22765;DHT22;11549;50.852;3.816;2023-04-24T06:03:11;9.40;99.90
22765;DHT22;11549;50.852;3.816;2023-04-24T06:05:40;9.50;99.90
22765;DHT22;11549;50.852;3.816;2023-04-24T06:08:08;9.40;99.90
22765;DHT22;11549;50.852;3.816;2023-04-24T06:10:37;9.50;99.90
22765;DHT22;11549;50.852;3.816;2023-04-24T06:13:07;9.50;99.90
22765;DHT22;11549;50.852;3.816;2023-04-24T06:15:35;9.40;99.90
22765;DHT22;11549;50.852;3.816;2023-04-24T06:18:03;9.50;99.90
22765;DHT22;11549;50.852;3.816;2023-04-24T06:20:32;9.60;99.90
22765;DHT22;11549;50.852;3.816;2023-04-24T06:23:00;9.70;99.90
22765;DHT22;11549;50.852;3.816;2023-04-24T06:25:28;9.60;99.90
22765;DHT22;11549;50.852;3.816;2023-04-24T06:27:57;9.60;99.90
22765;DHT22;11549;50.852;3.816;2023-04-24T06:30:27;9.60;99.90
22765;DHT22;11549;50.852;3.816;2023-04-24T06:32:55;9.70;99.90
22765;DHT22;11549;50.852;3.816;2023-04-24T06:35:35;9.70;99.90
22765;DHT22;11549;50.852;3.816;2023-04-24T06:38:05;9.80;99.90
22765;DHT22;11549;50.852;3.816;2023-04-24T06:40:33;9.80;99.90
22765;DHT22;11549;50.852;3.816;2023-04-24T06:43:01;9.90;99.90
22765;DHT22;11549;50.852;3.816;2023-04-24T06:45:31;10.10;99.90
22765;DHT22;11549;50.852;3.816;2023-04-24T06:48:00;10.30;99.90
22765;DHT22;11549;50.852;3.816;2023-04-24T06:50:28;10.40;99.90
22765;DHT22;11549;50.852;3.816;2023-04-24T06:52:57;10.40;99.90
22765;DHT22;11549;50.852;3.816;2023-04-24T06:55:25;10.50;99.90
22765;DHT22;11549;50.852;3.816;2023-04-24T06:57:53;10.50;99.90
22765;DHT22;11549;50.852;3.816;2023-04-24T07:00:22;10.50;99.90
22765;DHT22;11549;50.852;3.816;2023-04-24T07:02:53;10.50;99.90
22765;DHT22;11549;50.852;3.816;2023-04-24T07:05:21;10.50;99.90
22765;DHT22;11549;50.852;3.816;2023-04-24T07:07:50;10.70;99.90
22765;DHT22;11549;50.852;3.816;2023-04-24T07:10:19;10.80;99.90
22765;DHT22;11549;50.852;3.816;2023-04-24T07:12:48;10.80;99.90
22765;DHT22;11549;50.852;3.816;2023-04-24T07:15:16;10.80;99.90
22765;DHT22;11549;50.852;3.816;2023-04-24T07:17:45;10.70;99.90
22765;DHT22;11549;50.852;3.816;2023-04-24T07:20:15;10.70;99.90
22765;DHT22;11549;50.852;3.816;2023-04-24T07:22:43;10.80;99.90
22765;DHT22;11549;50.852;3.816;2023-04-24T07:25:11;10.70;99.90
22765;DHT22;11549;50.852;3.816;2023-04-24T07:27:40;10.70;99.90
22765;DHT22;11549;50.852;3.816;2023-04-24T07:30:09;10.70;99.90
22765;DHT22;11549;50.852;3.816;2023-04-24T07:32:37;10.70;99.90
22765;DHT22;11549;50.852;3.816;2023-04-24T07:35:06;10.80;99.90
22765;DHT22;11549;50.852;3.816;2023-04-24T07:37:37;10.90;99.90
22765;DHT22;11549;50.852;3.816;2023-04-24T07:40:07;10.90;99.90
22765;DHT22;11549;50.852;3.816;2023-04-24T07:42:35;10.90;99.90
22765;DHT22;11549;50.852;3.816;2023-04-24T07:45:04;10.90;99.90
22765;DHT22;11549;50.852;3.816;2023-04-24T07:47:34;11.00;99.90
22765;DHT22;11549;50.852;3.816;2023-04-24T07:50:04;11.10;99.90
22765;DHT22;11549;50.852;3.816;2023-04-24T07:52:32;11.00;99.90
22765;DHT22;11549;50.852;3.816;2023-04-24T07:55:03;11.20;99.90
22765;DHT22;11549;50.852;3.816;2023-04-24T07:57:31;11.50;99.90
22765;DHT22;11549;50.852;3.816;2023-04-24T07:59:59;11.80;99.90
22765;DHT22;11549;50.852;3.816;2023-04-24T08:02:28;12.00;99.90
22765;DHT22;11549;50.852;3.816;2023-04-24T08:04:56;12.20;99.90
22765;DHT22;11549;50.852;3.816;2023-04-24T08:07:26;12.20;99.90
22765;DHT22;11549;50.852;3.816;2023-04-24T08:09:54;12.10;99.90
22765;DHT22;11549;50.852;3.816;2023-04-24T08:12:24;12.10;99.90
22765;DHT22;11549;50.852;3.816;2023-04-24T08:14:52;12.20;99.90
22765;DHT22;11549;50.852;3.816;2023-04-24T08:17:21;12.40;99.90
22765;DHT22;11549;50.852;3.816;2023-04-24T08:19:49;12.80;99.90
22765;DHT22;11549;50.852;3.816;2023-04-24T08:22:19;13.30;99.90
22765;DHT22;11549;50.852;3.816;2023-04-24T08:24:47;13.30;99.90
22765;DHT22;11549;50.852;3.816;2023-04-24T08:27:16;13.20;99.90
22765;DHT22;11549;50.852;3.816;2023-04-24T08:29:46;13.20;99.90
22765;DHT22;11549;50.852;3.816;2023-04-24T08:32:14;13.10;99.90
22765;DHT22;11549;50.852;3.816;2023-04-24T08:34:42;13.10;99.90
22765;DHT22;11549;50.852;3.816;2023-04-24T08:37:12;13.20;99.90
22765;DHT22;11549;50.852;3.816;2023-04-24T08:39:41;13.30;99.90
22765;DHT22;11549;50.852;3.816;2023-04-24T08:42:11;13.50;99.90
22765;DHT22;11549;50.852;3.816;2023-04-24T08:44:41;13.60;99.90
22765;DHT22;11549;50.852;3.816;2023-04-24T08:47:11;13.50;99.90
22765;DHT22;11549;50.852;3.816;2023-04-24T08:49:43;13.30;99.90
22765;DHT22;11549;50.852;3.816;2023-04-24T08:52:12;12.80;99.90
22765;DHT22;11549;50.852;3.816;2023-04-24T08:54:42;12.90;99.90
22765;DHT22;11549;50.852;3.816;2023-04-24T08:57:13;13.10;99.90
22765;DHT22;11549;50.852;3.816;2023-04-24T08:59:43;13.30;99.90
22765;DHT22;11549;50.852;3.816;2023-04-24T09:02:14;13.20;99.90
22765;DHT22;11549;50.852;3.816;2023-04-24T09:04:44;13.20;99.90
22765;DHT22;11549;50.852;3.816;2023-04-24T09:07:14;13.20;99.90
22765;DHT22;11549;50.852;3.816;2023-04-24T09:09:45;13.10;99.90
22765;DHT22;11549;50.852;3.816;2023-04-24T09:12:14;12.90;99.90
22765;DHT22;11549;50.852;3.816;2023-04-24T09:14:42;12.70;99.90
22765;DHT22;11549;50.852;3.816;2023-04-24T09:17:13;12.60;99.90
22765;DHT22;11549;50.852;3.816;2023-04-24T09:19:42;12.80;99.90
22765;DHT22;11549;50.852;3.816;2023-04-24T09:22:11;13.00;99.90
22765;DHT22;11549;50.852;3.816;2023-04-24T09:24:40;12.90;99.90
22765;DHT22;11549;50.852;3.816;2023-04-24T09:27:11;12.90;99.90
22765;DHT22;11549;50.852;3.816;2023-04-24T09:29:53;13.00;99.90
22765;DHT22;11549;50.852;3.816;2023-04-24T09:32:23;13.00;99.90
22765;DHT22;11549;50.852;3.816;2023-04-24T09:35:06;12.90;99.90
22765;DHT22;11549;50.852;3.816;2023-04-24T09:37:36;12.90;99.90
22765;DHT22;11549;50.852;3.816;2023-04-24T09:40:09;13.00;99.90
22765;DHT22;11549;50.852;3.816;2023-04-24T09:42:39;13.10;99.90
22765;DHT22;11549;50.852;3.816;2023-04-24T09:45:11;12.90;99.90
22765;DHT22;11549;50.852;3.816;2023-04-24T09:47:43;12.80;99.90
22765;DHT22;11549;50.852;3.816;2023-04-24T09:50:13;13.00;99.90
22765;DHT22;11549;50.852;3.816;2023-04-24T09:52:44;13.20;99.90
22765;DHT22;11549;50.852;3.816;2023-04-24T09:55:18;13.30;99.90
22765;DHT22;11549;50.852;3.816;2023-04-24T09:57:50;13.40;99.90
22765;DHT22;11549;50.852;3.816;2023-04-24T10:00:22;13.50;99.90
22765;DHT22;11549;50.852;3.816;2023-04-24T10:02:54;13.40;99.90
22765;DHT22;11549;50.852;3.816;2023-04-24T10:05:26;13.10;99.90
22765;DHT22;11549;50.852;3.816;2023-04-24T10:08:00;13.10;99.90
22765;DHT22;11549;50.852;3.816;2023-04-24T10:10:30;13.00;99.90
22765;DHT22;11549;50.852;3.816;2023-04-24T10:12:59;13.10;99.90
22765;DHT22;11549;50.852;3.816;2023-04-24T10:15:28;13.00;99.90
22765;DHT22;11549;50.852;3.816;2023-04-24T10:17:59;13.00;99.90
22765;DHT22;11549;50.852;3.816;2023-04-24T10:20:29;12.80;99.90
22765;DHT22;11549;50.852;3.816;2023-04-24T10:22:59;12.90;99.90
22765;DHT22;11549;50.852;3.816;2023-04-24T10:25:29;13.00;99.90
22765;DHT22;11549;50.852;3.816;2023-04-24T10:27:58;13.10;99.90
22765;DHT22;11549;50.852;3.816;2023-04-24T10:30:29;13.20;99.90
22765;DHT22;11549;50.852;3.816;2023-04-24T10:33:01;13.30;99.90
22765;DHT22;11549;50.852;3.816;2023-04-24T10:35:31;13.40;99.90
22765;DHT22;11549;50.852;3.816;2023-04-24T10:38:03;13.40;99.90
22765;DHT22;11549;50.852;3.816;2023-04-24T10:40:35;13.50;99.90
22765;DHT22;11549;50.852;3.816;2023-04-24T10:43:04;13.40;99.90
22765;DHT22;11549;50.852;3.816;2023-04-24T10:45:35;13.40;99.90
22765;DHT22;11549;50.852;3.816;2023-04-24T10:48:06;13.40;99.90
22765;DHT22;11549;50.852;3.816;2023-04-24T10:50:44;13.30;99.90
22765;DHT22;11549;50.852;3.816;2023-04-24T10:53:14;13.30;99.90
22765;DHT22;11549;50.852;3.816;2023-04-24T10:55:45;13.20;99.90
22765;DHT22;11549;50.852;3.816;2023-04-24T10:58:13;13.00;99.90
22765;DHT22;11549;50.852;3.816;2023-04-24T11:00:44;13.00;99.90
22765;DHT22;11549;50.852;3.816;2023-04-24T11:03:29;13.00;99.90
22765;DHT22;11549;50.852;3.816;2023-04-24T11:06:00;13.00;99.90
22765;DHT22;11549;50.852;3.816;2023-04-24T11:08:31;13.30;99.90
22765;DHT22;11549;50.852;3.816;2023-04-24T11:11:03;13.40;99.90
22765;DHT22;11549;50.852;3.816;2023-04-24T11:14:06;13.60;99.90
22765;DHT22;11549;50.852;3.816;2023-04-24T11:16:41;13.70;99.90
22765;DHT22;11549;50.852;3.816;2023-04-24T11:19:21;13.70;99.90
22765;DHT22;11549;50.852;3.816;2023-04-24T11:21:56;13.80;99.90
22765;DHT22;11549;50.852;3.816;2023-04-24T11:24:37;13.80;99.90
22765;DHT22;11549;50.852;3.816;2023-04-24T11:27:10;13.90;99.90
22765;DHT22;11549;50.852;3.816;2023-04-24T11:29:42;13.90;99.90
22765;DHT22;11549;50.852;3.816;2023-04-24T11:32:19;13.70;99.90
22765;DHT22;11549;50.852;3.816;2023-04-24T11:34:50;13.90;99.90
22765;DHT22;11549;50.852;3.816;2023-04-24T11:37:19;14.20;99.90
22765;DHT22;11549;50.852;3.816;2023-04-24T11:39:50;14.80;99.90
22765;DHT22;11549;50.852;3.816;2023-04-24T11:42:20;15.20;99.90
22765;DHT22;11549;50.852;3.816;2023-04-24T11:44:49;15.30;99.90
22765;DHT22;11549;50.852;3.816;2023-04-24T11:47:17;15.30;99.90
22765;DHT22;11549;50.852;3.816;2023-04-24T11:49:46;15.20;99.90
22765;DHT22;11549;50.852;3.816;2023-04-24T11:52:17;15.20;99.90
22765;DHT22;11549;50.852;3.816;2023-04-24T11:54:49;15.20;99.90
22765;DHT22;11549;50.852;3.816;2023-04-24T11:57:19;15.00;99.90
22765;DHT22;11549;50.852;3.816;2023-04-24T11:59:49;15.00;99.90
22765;DHT22;11549;50.852;3.816;2023-04-24T12:02:22;15.10;99.90
22765;DHT22;11549;50.852;3.816;2023-04-24T12:04:52;15.20;99.90
22765;DHT22;11549;50.852;3.816;2023-04-24T12:07:23;15.30;99.90
22765;DHT22;11549;50.852;3.816;2023-04-24T12:09:56;15.30;99.90
22765;DHT22;11549;50.852;3.816;2023-04-24T12:12:26;15.20;99.90
22765;DHT22;11549;50.852;3.816;2023-04-24T12:14:56;15.30;99.90
22765;DHT22;11549;50.852;3.816;2023-04-24T12:17:27;15.20;99.90
22765;DHT22;11549;50.852;3.816;2023-04-24T12:19:58;15.40;99.90
22765;DHT22;11549;50.852;3.816;2023-04-24T12:22:43;15.70;99.90
22765;DHT22;11549;50.852;3.816;2023-04-24T12:25:13;15.90;99.90
22765;DHT22;11549;50.852;3.816;2023-04-24T12:27:41;16.10;99.90
22765;DHT22;11549;50.852;3.816;2023-04-24T12:30:12;16.50;99.90
22765;DHT22;11549;50.852;3.816;2023-04-24T12:32:42;16.50;99.90
22765;DHT22;11549;50.852;3.816;2023-04-24T12:35:11;16.50;99.90
22765;DHT22;11549;50.852;3.816;2023-04-24T12:37:42;16.20;99.90
22765;DHT22;11549;50.852;3.816;2023-04-24T12:40:14;16.50;99.90
22765;DHT22;11549;50.852;3.816;2023-04-24T12:42:44;16.70;99.90
22765;DHT22;11549;50.852;3.816;2023-04-24T12:45:14;16.70;99.90
22765;DHT22;11549;50.852;3.816;2023-04-24T12:47:43;16.70;99.90
22765;DHT22;11549;50.852;3.816;2023-04-24T12:50:13;17.00;99.90
22765;DHT22;11549;50.852;3.816;2023-04-24T12:52:44;17.40;99.90
22765;DHT22;11549;50.852;3.816;2023-04-24T12:55:12;17.20;99.90
22765;DHT22;11549;50.852;3.816;2023-04-24T12:57:41;16.80;99.90
22765;DHT22;11549;50.852;3.816;2023-04-24T13:00:10;16.30;99.90
22765;DHT22;11549;50.852;3.816;2023-04-24T13:02:38;15.90;99.90
22765;DHT22;11549;50.852;3.816;2023-04-24T13:05:08;16.00;99.90
22765;DHT22;11549;50.852;3.816;2023-04-24T13:07:38;16.00;99.90
22765;DHT22;11549;50.852;3.816;2023-04-24T13:10:09;15.80;99.90
22765;DHT22;11549;50.852;3.816;2023-04-24T13:12:37;15.70;99.90
22765;DHT22;11549;50.852;3.816;2023-04-24T13:15:07;15.80;99.90
22765;DHT22;11549;50.852;3.816;2023-04-24T13:17:35;15.80;99.90
22765;DHT22;11549;50.852;3.816;2023-04-24T13:20:06;15.50;99.90
22765;DHT22;11549;50.852;3.816;2023-04-24T13:22:35;15.70;99.90
22765;DHT22;11549;50.852;3.816;2023-04-24T13:25:04;15.80;99.90
22765;DHT22;11549;50.852;3.816;2023-04-24T13:27:35;15.90;99.90
22765;DHT22;11549;50.852;3.816;2023-04-24T13:30:04;15.80;99.90
22765;DHT22;11549;50.852;3.816;2023-04-24T13:32:33;15.60;99.90
22765;DHT22;11549;50.852;3.816;2023-04-24T13:35:02;15.60;99.90
22765;DHT22;11549;50.852;3.816;2023-04-24T13:37:31;15.50;99.90
22765;DHT22;11549;50.852;3.816;2023-04-24T13:39:59;15.30;99.90
22765;DHT22;11549;50.852;3.816;2023-04-24T13:42:28;15.40;99.90
22765;DHT22;11549;50.852;3.816;2023-04-24T13:44:57;15.40;99.90
22765;DHT22;11549;50.852;3.816;2023-04-24T13:47:28;15.70;99.90
22765;DHT22;11549;50.852;3.816;2023-04-24T13:49:56;16.00;99.90
22765;DHT22;11549;50.852;3.816;2023-04-24T13:52:25;16.20;99.90
22765;DHT22;11549;50.852;3.816;2023-04-24T13:54:53;16.10;99.90
22765;DHT22;11549;50.852;3.816;2023-04-24T13:57:22;16.00;99.90
22765;DHT22;11549;50.852;3.816;2023-04-24T13:59:50;15.80;99.90
22765;DHT22;11549;50.852;3.816;2023-04-24T14:02:20;15.50;99.90
22765;DHT22;11549;50.852;3.816;2023-04-24T14:04:49;15.20;99.90
22765;DHT22;11549;50.852;3.816;2023-04-24T14:07:17;15.30;99.90
22765;DHT22;11549;50.852;3.816;2023-04-24T14:09:46;15.10;99.90
22765;DHT22;11549;50.852;3.816;2023-04-24T14:12:14;15.00;99.90
22765;DHT22;11549;50.852;3.816;2023-04-24T14:14:46;14.90;99.90
22765;DHT22;11549;50.852;3.816;2023-04-24T14:17:15;14.80;99.90
22765;DHT22;11549;50.852;3.816;2023-04-24T14:19:44;14.70;99.90
22765;DHT22;11549;50.852;3.816;2023-04-24T14:22:13;14.80;99.90
22765;DHT22;11549;50.852;3.816;2023-04-24T14:24:41;14.70;99.90
22765;DHT22;11549;50.852;3.816;2023-04-24T14:27:09;14.90;99.90
22765;DHT22;11549;50.852;3.816;2023-04-24T14:29:37;14.70;99.90
22765;DHT22;11549;50.852;3.816;2023-04-24T14:32:06;14.60;99.90
22765;DHT22;11549;50.852;3.816;2023-04-24T14:34:35;14.60;99.90
22765;DHT22;11549;50.852;3.816;2023-04-24T14:37:05;14.40;99.90
22765;DHT22;11549;50.852;3.816;2023-04-24T14:39:33;14.30;99.90
22765;DHT22;11549;50.852;3.816;2023-04-24T14:42:01;14.20;99.90
22765;DHT22;11549;50.852;3.816;2023-04-24T14:44:30;14.10;99.90
22765;DHT22;11549;50.852;3.816;2023-04-24T14:46:59;14.10;99.90
22765;DHT22;11549;50.852;3.816;2023-04-24T14:49:27;14.20;99.90
22765;DHT22;11549;50.852;3.816;2023-04-24T14:51:55;14.20;99.90
22765;DHT22;11549;50.852;3.816;2023-04-24T14:54:25;14.50;99.90
22765;DHT22;11549;50.852;3.816;2023-04-24T14:56:54;14.80;99.90
22765;DHT22;11549;50.852;3.816;2023-04-24T14:59:23;14.90;99.90
22765;DHT22;11549;50.852;3.816;2023-04-24T15:01:52;14.70;99.90
22765;DHT22;11549;50.852;3.816;2023-04-24T15:04:40;14.70;99.90
22765;DHT22;11549;50.852;3.816;2023-04-24T15:07:09;14.60;99.90
22765;DHT22;11549;50.852;3.816;2023-04-24T15:09:39;14.40;99.90
22765;DHT22;11549;50.852;3.816;2023-04-24T15:12:08;14.40;99.90
22765;DHT22;11549;50.852;3.816;2023-04-24T15:14:36;14.20;99.90
22765;DHT22;11549;50.852;3.816;2023-04-24T15:17:05;13.90;99.90
22765;DHT22;11549;50.852;3.816;2023-04-24T15:19:34;13.90;99.90
22765;DHT22;11549;50.852;3.816;2023-04-24T15:22:02;13.90;99.90
22765;DHT22;11549;50.852;3.816;2023-04-24T15:24:30;13.90;99.90
22765;DHT22;11549;50.852;3.816;2023-04-24T15:27:00;13.80;99.90
22765;DHT22;11549;50.852;3.816;2023-04-24T15:29:29;13.70;99.90
22765;DHT22;11549;50.852;3.816;2023-04-24T15:31:58;13.60;99.90
22765;DHT22;11549;50.852;3.816;2023-04-24T15:34:26;13.50;99.90
22765;DHT22;11549;50.852;3.816;2023-04-24T15:36:55;13.50;99.90
22765;DHT22;11549;50.852;3.816;2023-04-24T15:39:23;13.50;99.90
22765;DHT22;11549;50.852;3.816;2023-04-24T15:41:52;13.40;99.90
22765;DHT22;11549;50.852;3.816;2023-04-24T15:44:22;13.20;99.90
22765;DHT22;11549;50.852;3.816;2023-04-24T15:46:51;13.10;99.90
22765;DHT22;11549;50.852;3.816;2023-04-24T15:49:19;13.20;99.90